Time;durP1;ratioP1;P1;durP2;ratioP2;P2;SDS_P1;SDS_P2;PMS_P1;PMS_P2;Temp;Humidity;BMP_temperature;BMP_pressure;BME280_temperature;BME280_humidity;BME280_pressure;Samples;Min_cycle;Max_cycle;Signal;HPM_P1;HPM_P2
2022/05/06 00:02:21;;;;;;;43.20;37.03;;;8.50;99.90;;;;;;5037289;28;21109;-68
2022/05/06 00:04:49;;;;;;;45.97;38.20;;;8.50;99.90;;;;;;5033974;28;20867;-68
2022/05/06 00:07:16;;;;;;;45.23;37.20;;;8.50;99.90;;;;;;5030636;28;20467;-67
2022/05/06 00:09:44;;;;;;;42.70;36.87;;;8.50;99.90;;;;;;5030090;28;20475;-68
2022/05/06 00:12:17;;;;;;;41.17;36.83;;;8.50;99.90;;;;;;5032786;28;20466;-68
2022/05/06 00:14:44;;;;;;;44.40;37.77;;;8.50;99.90;;;;;;5034785;28;20472;-68
2022/05/06 00:17:11;;;;;;;38.27;34.27;;;8.50;99.90;;;;;;5032468;28;20459;-68
2022/05/06 00:19:38;;;;;;;39.27;35.03;;;8.40;99.90;;;;;;5030672;28;20547;-68
2022/05/06 00:22:05;;;;;;;42.60;34.97;;;8.30;99.90;;;;;;5029559;28;21165;-68
2022/05/06 00:24:32;;;;;;;50.67;38.50;;;8.30;99.90;;;;;;5029790;28;20459;-68
2022/05/06 00:27:00;;;;;;;39.67;35.40;;;8.20;99.90;;;;;;5036350;28;20839;-67
2022/05/06 00:29:29;;;;;;;47.67;38.60;;;8.10;99.90;;;;;;5030121;28;21001;-68
2022/05/06 00:31:56;;;;;;;41.87;37.37;;;8.10;99.90;;;;;;5033972;28;20462;-67
2022/05/06 00:34:23;;;;;;;38.63;34.43;;;8.10;99.90;;;;;;5029828;28;20471;-68
2022/05/06 00:36:51;;;;;;;37.67;33.87;;;8.00;99.90;;;;;;5027808;28;20477;-68
2022/05/06 00:39:18;;;;;;;41.67;37.17;;;8.00;99.90;;;;;;5030515;28;20481;-68
2022/05/06 00:41:45;;;;;;;44.83;37.83;;;8.00;99.90;;;;;;5028511;28;20468;-68
2022/05/06 00:44:12;;;;;;;50.23;43.10;;;8.00;99.90;;;;;;5031694;28;20498;-68
2022/05/06 00:46:41;;;;;;;53.07;38.87;;;8.00;99.90;;;;;;5035793;28;20961;-68
2022/05/06 00:49:10;;;;;;;45.83;39.17;;;8.10;99.90;;;;;;5037190;28;20476;-68
2022/05/06 00:51:38;;;;;;;44.47;39.23;;;8.00;99.90;;;;;;5040401;28;20548;-68
2022/05/06 00:54:06;;;;;;;43.37;37.30;;;7.90;99.90;;;;;;5030581;28;20468;-67
2022/05/06 00:56:33;;;;;;;43.53;37.33;;;7.90;99.90;;;;;;5032772;28;20885;-68
2022/05/06 00:59:00;;;;;;;46.63;38.87;;;7.80;99.90;;;;;;5031278;28;20486;-68
2022/05/06 01:01:29;;;;;;;49.80;38.50;;;7.90;99.90;;;;;;5036756;28;20474;-68
2022/05/06 01:03:58;;;;;;;44.23;39.10;;;7.80;99.90;;;;;;5028835;28;20521;-67
2022/05/06 01:06:25;;;;;;;44.43;39.10;;;7.70;99.90;;;;;;5039906;28;20470;-67
2022/05/06 01:08:52;;;;;;;47.47;41.00;;;7.60;99.90;;;;;;5030925;28;20470;-67
2022/05/06 01:11:21;;;;;;;43.73;39.00;;;7.70;99.90;;;;;;5034370;28;20827;-68
2022/05/06 01:13:53;;;;;;;53.97;45.23;;;7.70;99.90;;;;;;5036697;28;20473;-68
2022/05/06 01:16:20;;;;;;;56.60;42.80;;;7.60;99.90;;;;;;5029913;28;21010;-67
2022/05/06 01:18:48;;;;;;;61.47;47.80;;;7.70;99.90;;;;;;5037155;28;20937;-68
2022/05/06 01:21:23;;;;;;;63.87;45.83;;;7.70;99.90;;;;;;5031559;28;20473;-68
2022/05/06 01:23:51;;;;;;;55.67;42.57;;;7.70;99.90;;;;;;5033204;28;20483;-68
2022/05/06 01:26:18;;;;;;;59.70;44.50;;;7.80;99.90;;;;;;5026223;28;20471;-68
2022/05/06 01:28:46;;;;;;;69.33;48.73;;;7.80;99.90;;;;;;5028496;28;20979;-68
2022/05/06 01:31:22;;;;;;;63.70;47.57;;;7.80;99.90;;;;;;5031607;28;20514;-67
2022/05/06 01:33:54;;;;;;;65.90;47.83;;;7.90;99.90;;;;;;5039187;28;20769;-68
2022/05/06 01:36:24;;;;;;;76.37;50.93;;;7.90;99.90;;;;;;5027720;28;20524;-68
2022/05/06 01:38:56;;;;;;;69.10;51.90;;;8.00;99.90;;;;;;5032919;28;21025;-67
2022/05/06 01:41:24;;;;;;;70.67;50.97;;;8.10;99.90;;;;;;5034531;28;21043;-68
2022/05/06 01:43:55;;;;;;;76.30;51.83;;;8.10;99.90;;;;;;5032488;28;20498;-67
2022/05/06 01:46:26;;;;;;;70.90;50.93;;;8.20;99.90;;;;;;5038011;28;20471;-67
2022/05/06 01:48:55;;;;;;;80.10;55.30;;;8.20;99.90;;;;;;5029320;28;20559;-67
2022/05/06 01:51:24;;;;;;;77.23;52.40;;;8.20;99.90;;;;;;5030993;28;20791;-68
2022/05/06 01:53:51;;;;;;;83.93;52.10;;;8.20;99.90;;;;;;5032669;28;20954;-68
2022/05/06 01:56:20;;;;;;;71.97;52.10;;;8.20;99.90;;;;;;5031853;28;20496;-68
2022/05/06 01:58:48;;;;;;;69.50;51.13;;;8.20;99.90;;;;;;5029433;28;20476;-68
2022/05/06 02:01:15;;;;;;;66.43;49.47;;;8.00;99.90;;;;;;5031058;28;20460;-68
2022/05/06 02:06:27;;;;;;;51.33;41.90;;;7.80;99.90;;;;;;5029629;28;21223;-67
2022/05/06 02:08:53;;;;;;;67.53;47.13;;;7.60;99.90;;;;;;5030224;28;21020;-67
2022/05/06 02:11:22;;;;;;;67.93;49.00;;;7.50;99.90;;;;;;5033263;28;20814;-67
2022/05/06 02:13:49;;;;;;;52.67;44.37;;;7.40;99.90;;;;;;5032297;28;20461;-68
2022/05/06 02:16:16;;;;;;;60.53;44.77;;;7.40;99.90;;;;;;5034342;28;20496;-67
2022/05/06 02:18:44;;;;;;;69.30;44.03;;;7.50;99.90;;;;;;5032325;28;20468;-67
2022/05/06 02:21:11;;;;;;;50.50;42.83;;;7.40;99.90;;;;;;5032088;28;20495;-67
2022/05/06 02:23:38;;;;;;;55.87;44.10;;;7.40;99.90;;;;;;5028685;28;20842;-67
2022/05/06 02:26:04;;;;;;;63.70;44.87;;;7.30;99.90;;;;;;5033029;28;20498;-67
2022/05/06 02:28:33;;;;;;;52.50;43.37;;;7.30;99.90;;;;;;5038744;28;20470;-68
2022/05/06 02:33:44;;;;;;;62.90;46.00;;;7.20;99.90;;;;;;5029023;28;20459;-67
2022/05/06 02:36:12;;;;;;;56.50;44.47;;;7.30;99.90;;;;;;5031274;28;20544;-67
2022/05/06 02:38:39;;;;;;;60.50;45.53;;;7.30;99.90;;;;;;5026704;28;21008;-68
2022/05/06 02:41:06;;;;;;;56.90;46.70;;;7.20;99.90;;;;;;5029741;28;20963;-67
2022/05/06 02:43:34;;;;;;;61.27;47.70;;;7.10;99.90;;;;;;5031771;28;20500;-68
2022/05/06 02:46:01;;;;;;;52.77;45.50;;;7.10;99.90;;;;;;5026277;28;20472;-68
2022/05/06 02:48:28;;;;;;;63.77;47.80;;;7.10;99.90;;;;;;5031344;28;20471;-66
2022/05/06 02:50:56;;;;;;;62.90;46.27;;;7.00;99.90;;;;;;5029473;28;20508;-67
2022/05/06 02:53:22;;;;;;;60.47;48.53;;;7.00;99.90;;;;;;5029472;28;20932;-67
2022/05/06 02:55:49;;;;;;;54.90;44.27;;;6.90;99.90;;;;;;5027177;28;20490;-66
2022/05/06 02:58:16;;;;;;;55.87;44.53;;;6.90;99.90;;;;;;5031597;28;20932;-68
2022/05/06 03:00:45;;;;;;;58.70;47.30;;;6.90;99.90;;;;;;5032555;28;20472;-67
2022/05/06 03:03:12;;;;;;;72.00;50.07;;;6.80;99.90;;;;;;5027263;28;20949;-67
2022/05/06 03:05:39;;;;;;;59.27;48.00;;;6.80;99.90;;;;;;5031947;28;20516;-67
2022/05/06 03:08:06;;;;;;;56.73;46.27;;;6.80;99.90;;;;;;5035555;28;20834;-67
2022/05/06 03:10:33;;;;;;;59.60;46.37;;;6.70;99.90;;;;;;5034106;28;20473;-67
2022/05/06 03:13:00;;;;;;;66.97;49.67;;;6.70;99.90;;;;;;5033455;28;20464;-67
2022/05/06 03:15:27;;;;;;;74.80;49.70;;;6.70;99.90;;;;;;5027222;28;20454;-67
2022/05/06 03:17:56;;;;;;;68.50;49.57;;;6.70;99.90;;;;;;5028829;28;20473;-67
2022/05/06 03:20:23;;;;;;;81.03;55.47;;;6.70;99.90;;;;;;5033510;28;20880;-67
2022/05/06 03:22:52;;;;;;;76.30;54.13;;;6.70;99.90;;;;;;5033024;28;20526;-68
2022/05/06 03:25:21;;;;;;;75.50;56.43;;;6.90;99.90;;;;;;5028498;28;20494;-67
2022/05/06 03:28:08;;;;;;;80.47;57.00;;;6.90;99.90;;;;;;5029115;28;20465;-67
2022/05/06 03:30:39;;;;;;;82.03;53.97;;;6.90;99.90;;;;;;5030906;28;20549;-67
2022/05/06 03:33:09;;;;;;;78.80;55.80;;;6.90;99.90;;;;;;5029175;28;20457;-67
2022/05/06 03:35:37;;;;;;;82.93;57.30;;;6.90;99.90;;;;;;5030461;28;20495;-67
2022/05/06 03:38:05;;;;;;;84.40;54.57;;;7.00;99.90;;;;;;5031944;28;20457;-67
2022/05/06 03:40:33;;;;;;;82.27;54.27;;;7.00;99.90;;;;;;5029450;28;20465;-67
2022/05/06 03:43:00;;;;;;;82.00;55.47;;;7.00;99.90;;;;;;5031217;28;21050;-67
2022/05/06 03:45:27;;;;;;;92.07;58.63;;;6.90;99.90;;;;;;5029618;28;20512;-67
2022/05/06 03:47:55;;;;;;;79.67;54.33;;;7.10;99.90;;;;;;5030840;28;21042;-66
2022/05/06 03:53:08;;;;;;;79.10;57.77;;;7.20;99.90;;;;;;5032387;28;20454;-66
2022/05/06 03:55:35;;;;;;;78.80;53.57;;;7.20;99.90;;;;;;5034054;28;20483;-67
2022/05/06 03:58:02;;;;;;;70.50;52.17;;;7.10;99.90;;;;;;5031307;28;20474;-67
2022/05/06 04:00:30;;;;;;;73.90;55.20;;;6.90;99.90;;;;;;5035032;28;20566;-67
2022/05/06 04:02:56;;;;;;;83.90;60.87;;;6.80;99.90;;;;;;5011900;28;20850;-68
2022/05/06 04:05:25;;;;;;;87.27;59.50;;;6.80;99.90;;;;;;5002567;28;21100;-67
2022/05/06 04:07:52;;;;;;;85.40;57.70;;;6.70;99.90;;;;;;5003190;28;20467;-68
2022/05/06 04:10:19;;;;;;;81.40;59.03;;;6.70;99.90;;;;;;5003227;28;20554;-67
2022/05/06 04:12:47;;;;;;;86.50;59.77;;;6.80;99.90;;;;;;5004486;28;21232;-67
2022/05/06 04:15:13;;;;;;;78.57;56.30;;;6.80;99.90;;;;;;5001602;28;20567;-67
2022/05/06 04:17:40;;;;;;;76.97;55.87;;;6.70;99.90;;;;;;5003735;28;20468;-68
2022/05/06 04:25:41;;;;;;;90.70;60.70;;;6.70;99.90;;;;;;5006784;28;20522;-67
2022/05/06 04:28:08;;;;;;;88.23;60.93;;;6.70;99.90;;;;;;5005420;28;20942;-67
2022/05/06 04:30:35;;;;;;;81.87;57.00;;;6.80;99.90;;;;;;5004471;28;20461;-68
2022/05/06 04:33:03;;;;;;;89.70;61.70;;;6.80;99.90;;;;;;5007198;28;20461;-68
2022/05/06 04:35:29;;;;;;;83.90;57.77;;;6.80;99.90;;;;;;5006278;28;20473;-67
2022/05/06 04:37:58;;;;;;;79.50;58.23;;;6.80;99.90;;;;;;5006963;28;20460;-66
2022/05/06 04:40:25;;;;;;;83.87;58.40;;;6.70;99.90;;;;;;5006368;28;20484;-67
2022/05/06 04:42:51;;;;;;;82.03;58.23;;;6.70;99.90;;;;;;5008378;28;20460;-65
2022/05/06 04:45:18;;;;;;;88.73;57.30;;;6.70;99.90;;;;;;5006532;28;20503;-67
2022/05/06 04:47:45;;;;;;;85.07;59.03;;;6.70;99.90;;;;;;5007384;28;20469;-65
2022/05/06 04:50:12;;;;;;;89.70;59.27;;;6.80;99.90;;;;;;5006892;28;20537;-66
2022/05/06 04:52:40;;;;;;;96.07;60.03;;;6.90;99.90;;;;;;5006637;28;20471;-66
2022/05/06 04:55:09;;;;;;;80.83;59.60;;;7.00;99.90;;;;;;5007047;28;20465;-66
2022/05/06 04:57:36;;;;;;;94.77;58.53;;;7.10;99.90;;;;;;5026152;28;20451;-66
2022/05/06 05:00:04;;;;;;;88.20;61.10;;;7.10;99.90;;;;;;5027858;28;20456;-65
2022/05/06 05:02:30;;;;;;;92.23;60.67;;;7.20;99.90;;;;;;5016169;28;20458;-66
2022/05/06 05:04:58;;;;;;;97.40;65.07;;;7.40;99.90;;;;;;5016995;28;20528;-66
2022/05/06 05:07:25;;;;;;;103.47;66.10;;;7.60;99.90;;;;;;5015308;28;20475;-66
2022/05/06 05:09:53;;;;;;;96.83;67.00;;;7.80;99.90;;;;;;5016079;28;20470;-67
2022/05/06 05:12:21;;;;;;;85.47;62.07;;;7.90;99.90;;;;;;5016153;28;20467;-66
2022/05/06 05:14:48;;;;;;;106.97;66.17;;;8.10;99.90;;;;;;5017629;28;20802;-67
2022/05/06 05:17:15;;;;;;;94.57;62.20;;;8.20;99.90;;;;;;5015213;28;20936;-66
2022/05/06 05:19:42;;;;;;;92.90;62.97;;;8.30;99.90;;;;;;5016827;28;20464;-67
2022/05/06 05:22:09;;;;;;;91.90;63.30;;;8.40;99.90;;;;;;5017019;28;20471;-66
2022/05/06 05:24:36;;;;;;;96.43;64.37;;;8.50;99.90;;;;;;5030729;28;20492;-66
2022/05/06 05:27:03;;;;;;;89.23;60.37;;;8.60;99.90;;;;;;5031127;28;20464;-66
2022/05/06 05:29:31;;;;;;;82.60;58.67;;;8.70;99.90;;;;;;5029123;28;20457;-66
2022/05/06 05:31:58;;;;;;;95.87;64.07;;;8.80;99.90;;;;;;5024170;28;20585;-66
2022/05/06 05:34:25;;;;;;;101.77;65.03;;;8.90;99.90;;;;;;5015741;28;20459;-67
2022/05/06 05:36:52;;;;;;;92.27;63.00;;;9.10;99.90;;;;;;5014682;28;20458;-67
2022/05/06 05:39:18;;;;;;;97.67;62.03;;;9.20;99.90;;;;;;5014256;28;20474;-67
2022/05/06 05:41:45;;;;;;;100.53;68.60;;;9.30;99.90;;;;;;5015773;28;20576;-67
2022/05/06 05:49:41;;;;;;;94.53;65.30;;;9.60;99.90;;;;;;5014606;28;20448;-67
2022/05/06 05:52:08;;;;;;;95.80;64.90;;;9.70;99.90;;;;;;5014566;28;20463;-68
2022/05/06 05:54:36;;;;;;;104.70;63.53;;;9.80;99.90;;;;;;5012374;28;20844;-67
2022/05/06 05:57:04;;;;;;;94.07;64.93;;;9.80;99.90;;;;;;5006503;28;20495;-66
2022/05/06 05:59:31;;;;;;;100.90;69.43;;;9.90;99.90;;;;;;5006227;28;20475;-68
2022/05/06 06:02:01;;;;;;;103.70;66.80;;;10.10;99.90;;;;;;5002850;28;20555;-67
2022/05/06 06:04:28;;;;;;;97.90;64.17;;;10.20;99.90;;;;;;5001972;28;21083;-68
2022/05/06 06:06:54;;;;;;;103.30;68.33;;;10.30;99.90;;;;;;5005121;28;20463;-67
2022/05/06 06:09:22;;;;;;;114.07;70.50;;;10.30;99.90;;;;;;5004389;28;20974;-67
2022/05/06 06:11:49;;;;;;;114.03;71.33;;;10.40;99.90;;;;;;5004902;28;20471;-67
2022/05/06 06:14:15;;;;;;;118.70;72.57;;;10.50;99.90;;;;;;5000953;28;21534;-69
2022/05/06 06:16:42;;;;;;;119.67;71.60;;;10.70;99.90;;;;;;5003160;28;20448;-67
2022/05/06 06:19:11;;;;;;;113.27;69.40;;;10.90;99.90;;;;;;5003467;28;20483;-69
2022/05/06 06:21:38;;;;;;;118.47;73.90;;;11.00;99.90;;;;;;5002223;28;21205;-67
2022/05/06 06:24:05;;;;;;;114.87;72.63;;;11.00;99.90;;;;;;5001142;28;20464;-68
2022/05/06 06:26:32;;;;;;;119.73;74.40;;;11.20;99.90;;;;;;5002809;28;20471;-68
2022/05/06 06:28:59;;;;;;;106.30;68.23;;;11.20;99.90;;;;;;5003051;28;20478;-67
2022/05/06 06:31:26;;;;;;;105.83;70.03;;;11.30;99.90;;;;;;5003038;28;20472;-67
2022/05/06 06:33:53;;;;;;;122.87;75.13;;;11.40;99.90;;;;;;5001071;28;20472;-68
2022/05/06 06:36:22;;;;;;;115.67;70.43;;;11.30;99.90;;;;;;5004168;28;20488;-69
2022/05/06 06:38:49;;;;;;;117.97;73.73;;;11.40;99.90;;;;;;5004073;28;20465;-67
2022/05/06 06:41:16;;;;;;;111.93;74.10;;;11.40;99.90;;;;;;5002621;28;20510;-67
2022/05/06 06:43:43;;;;;;;121.93;75.57;;;11.50;99.90;;;;;;5003790;28;20991;-68
2022/05/06 06:46:10;;;;;;;119.13;73.13;;;11.60;99.90;;;;;;5003204;28;21052;-69
2022/05/06 06:48:39;;;;;;;118.43;74.63;;;11.60;99.90;;;;;;5004834;28;20775;-68
2022/05/06 06:51:06;;;;;;;112.07;69.90;;;11.60;99.90;;;;;;5002741;28;20810;-67
2022/05/06 06:53:35;;;;;;;113.20;71.97;;;11.60;99.90;;;;;;5002745;28;20522;-68
2022/05/06 06:56:02;;;;;;;112.53;69.43;;;11.70;99.90;;;;;;5003371;28;20596;-67
2022/05/06 06:58:28;;;;;;;111.50;66.57;;;11.70;99.90;;;;;;5003115;28;21021;-69
2022/05/06 07:00:55;;;;;;;123.10;68.37;;;11.80;99.90;;;;;;5002348;28;20472;-68
2022/05/06 07:03:22;;;;;;;106.70;65.83;;;11.90;99.90;;;;;;5002428;28;21258;-70
2022/05/06 07:14:05;;;;;;;97.50;62.00;;;12.20;99.90;;;;;;5001775;28;20526;-69
2022/05/06 07:16:31;;;;;;;106.77;64.00;;;12.10;99.90;;;;;;5002719;28;20947;-69
2022/05/06 07:18:58;;;;;;;99.27;61.40;;;12.10;99.90;;;;;;5002547;28;20571;-70
2022/05/06 07:21:25;;;;;;;105.83;66.73;;;12.30;99.90;;;;;;5002978;28;20983;-68
2022/05/06 07:23:53;;;;;;;95.53;58.37;;;12.30;99.90;;;;;;5001799;28;20464;-70
2022/05/06 07:26:20;;;;;;;96.10;62.03;;;12.50;99.90;;;;;;5002221;28;20527;-67
2022/05/06 07:28:47;;;;;;;96.57;58.57;;;12.50;99.90;;;;;;5002629;28;20467;-67
2022/05/06 07:31:14;;;;;;;98.70;59.00;;;12.60;99.90;;;;;;5002135;28;20479;-69
2022/05/06 07:33:40;;;;;;;98.27;57.10;;;12.90;99.90;;;;;;5003722;28;20456;-69
2022/05/06 07:36:07;;;;;;;88.07;55.87;;;12.90;99.90;;;;;;5002681;28;20460;-68
2022/05/06 07:38:34;;;;;;;91.50;56.60;;;13.20;99.90;;;;;;5002417;28;21310;-68
2022/05/06 07:41:03;;;;;;;84.40;55.87;;;13.10;99.90;;;;;;5003300;28;20471;-69
2022/05/06 07:43:30;;;;;;;83.53;53.83;;;13.30;99.90;;;;;;5002234;28;20472;-68
2022/05/06 07:45:57;;;;;;;79.73;53.40;;;13.50;99.90;;;;;;5000479;28;20987;-67
2022/05/06 07:48:24;;;;;;;79.87;53.83;;;13.60;99.90;;;;;;5002696;28;21163;-67
2022/05/06 07:50:52;;;;;;;86.47;53.80;;;13.80;99.90;;;;;;5002674;28;20472;-67
2022/05/06 07:53:19;;;;;;;84.50;50.50;;;13.90;99.90;;;;;;5002717;28;21005;-68
2022/05/06 07:55:46;;;;;;;70.70;50.40;;;13.90;99.90;;;;;;5003403;28;20952;-67
2022/05/06 07:58:14;;;;;;;74.40;50.60;;;13.80;99.90;;;;;;5003107;28;20467;-67
2022/05/06 08:00:41;;;;;;;72.27;51.70;;;13.70;99.90;;;;;;5002775;28;20484;-67
2022/05/06 08:05:56;;;;;;;73.93;48.47;;;13.70;99.90;;;;;;5004393;28;20506;-66
2022/05/06 08:08:25;;;;;;;78.50;48.87;;;13.80;99.90;;;;;;5007183;28;20609;-66
2022/05/06 08:10:51;;;;;;;80.50;51.27;;;14.00;99.90;;;;;;5006314;28;20634;-67
2022/05/06 08:13:20;;;;;;;71.23;50.10;;;14.10;99.90;;;;;;5007015;28;20461;-67
2022/05/06 08:15:47;;;;;;;78.20;50.87;;;14.30;99.90;;;;;;5006365;28;21036;-66
2022/05/06 08:18:14;;;;;;;76.40;50.57;;;14.30;99.90;;;;;;5006500;28;20479;-66
2022/05/06 08:20:41;;;;;;;72.57;49.37;;;14.40;99.90;;;;;;5011878;28;20468;-66
2022/05/06 08:23:08;;;;;;;81.20;51.07;;;14.40;99.90;;;;;;5028609;28;20490;-65
2022/05/06 08:25:35;;;;;;;72.80;52.30;;;14.60;99.90;;;;;;5029502;28;20500;-69
2022/05/06 08:28:02;;;;;;;73.47;52.13;;;14.80;99.90;;;;;;5025380;28;20839;-67
2022/05/06 08:30:30;;;;;;;77.47;49.93;;;15.20;99.90;;;;;;5004392;28;21038;-67
2022/05/06 08:32:57;;;;;;;69.00;48.87;;;15.60;99.90;;;;;;5005810;28;20888;-68
2022/05/06 08:35:24;;;;;;;65.03;47.50;;;16.40;99.90;;;;;;5004464;28;21074;-68
2022/05/06 08:37:51;;;;;;;69.63;47.93;;;16.90;99.90;;;;;;5002442;28;20911;-66
2022/05/06 08:40:19;;;;;;;77.43;51.57;;;17.00;99.90;;;;;;5003836;28;20471;-67
2022/05/06 08:42:47;;;;;;;62.97;48.97;;;17.80;99.90;;;;;;5005028;28;20480;-67
2022/05/06 08:50:53;;;;;;;58.37;46.00;;;18.50;99.90;;;;;;4980104;28;21045;-67
2022/05/06 08:53:21;;;;;;;58.30;47.23;;;18.10;99.90;;;;;;5003099;28;21106;-66
2022/05/06 08:55:49;;;;;;;57.50;46.03;;;18.90;99.90;;;;;;5004663;28;20476;-68
2022/05/06 08:58:16;;;;;;;53.43;44.63;;;19.30;99.90;;;;;;5004707;28;20461;-68
2022/05/06 09:00:43;;;;;;;62.27;47.50;;;19.40;99.90;;;;;;5004553;28;20809;-67
2022/05/06 09:03:15;;;;;;;62.67;46.20;;;19.50;99.90;;;;;;5005485;28;20514;-68
2022/05/06 09:05:52;;;;;;;50.97;43.70;;;20.00;99.90;;;;;;5006023;28;20501;-68
2022/05/06 09:08:19;;;;;;;48.50;42.23;;;20.50;99.90;;;;;;5004100;28;20848;-68
2022/05/06 09:11:01;;;;;;;48.87;41.90;;;20.70;99.90;;;;;;5003216;28;20468;-68
2022/05/06 09:13:28;;;;;;;50.90;42.80;;;20.90;99.90;;;;;;5004128;28;20959;-67
2022/05/06 09:19:23;;;;;;;54.67;43.00;;;20.40;99.90;;;;;;5003423;28;20475;-68
2022/05/06 09:22:05;;;;;;;53.43;44.90;;;21.00;99.90;;;;;;5003446;28;20857;-68
2022/05/06 09:24:32;;;;;;;44.40;39.80;;;21.30;99.90;;;;;;5005141;28;21204;-67
2022/05/06 09:27:01;;;;;;;49.47;39.30;;;21.70;99.90;;;;;;5005682;28;20491;-67
2022/05/06 09:29:34;;;;;;;46.03;41.03;;;22.00;99.90;;;;;;5004502;28;21030;-68
2022/05/06 09:32:17;;;;;;;45.50;40.57;;;21.80;99.90;;;;;;5004275;28;20828;-68
2022/05/06 09:35:12;;;;;;;48.70;41.20;;;22.40;99.90;;;;;;5028474;28;20484;-67
2022/05/06 09:37:41;;;;;;;52.13;41.13;;;23.00;99.90;;;;;;5028393;28;20507;-67
2022/05/06 09:40:13;;;;;;;48.50;43.20;;;23.00;99.90;;;;;;5027377;28;20464;-68
2022/05/06 09:42:41;;;;;;;50.10;43.43;;;22.20;99.90;;;;;;5004383;28;20453;-65
2022/05/06 09:45:09;;;;;;;50.07;42.73;;;22.80;99.90;;;;;;5004018;28;20817;-67
2022/05/06 09:47:37;;;;;;;54.93;42.97;;;22.70;99.90;;;;;;5005341;28;21481;-66
2022/05/06 09:50:08;;;;;;;54.77;43.77;;;22.70;99.90;;;;;;5005103;28;20963;-66
2022/05/06 09:52:35;;;;;;;50.87;44.47;;;22.90;99.90;;;;;;5005743;28;21528;-67
2022/05/06 09:55:03;;;;;;;52.30;43.17;;;23.00;99.90;;;;;;5004386;28;20504;-66
2022/05/06 09:57:32;;;;;;;44.53;39.13;;;22.40;99.90;;;;;;5004343;28;21025;-65
2022/05/06 09:59:58;;;;;;;42.93;38.43;;;22.70;99.90;;;;;;5005010;28;20491;-65
2022/05/06 10:02:25;;;;;;;42.37;37.77;;;23.40;99.90;;;;;;5004582;28;20492;-66
2022/05/06 10:04:52;;;;;;;42.27;37.70;;;23.60;99.90;;;;;;5004747;28;20485;-65
2022/05/06 10:07:25;;;;;;;46.47;38.20;;;24.10;99.90;;;;;;5004341;28;20488;-66
2022/05/06 10:09:58;;;;;;;43.77;37.47;;;24.50;99.90;;;;;;5004233;28;21002;-66
2022/05/06 10:12:30;;;;;;;43.27;38.57;;;24.60;99.70;;;;;;5004412;28;20473;-65
2022/05/06 10:14:57;;;;;;;43.07;38.40;;;24.60;98.10;;;;;;5004722;28;20460;-65
2022/05/06 10:17:50;;;;;;;46.90;39.10;;;23.90;98.30;;;;;;5020851;28;20471;-66
2022/05/06 10:20:47;;;;;;;41.63;37.20;;;23.70;98.60;;;;;;5019969;28;21213;-66
2022/05/06 10:23:18;;;;;;;43.37;38.87;;;24.40;98.50;;;;;;5022508;28;20472;-66
2022/05/06 10:25:57;;;;;;;42.90;37.13;;;25.00;97.70;;;;;;5002175;28;20894;-67
2022/05/06 10:34:29;;;;;;;40.97;36.47;;;25.10;95.40;;;;;;5001381;28;20472;-67
2022/05/06 10:36:57;;;;;;;44.43;39.60;;;25.00;96.10;;;;;;5002426;28;20483;-66
2022/05/06 10:39:26;;;;;;;43.50;38.80;;;24.20;95.70;;;;;;5002736;28;20461;-67
2022/05/06 10:42:03;;;;;;;42.30;37.80;;;24.30;96.50;;;;;;5001887;28;20472;-67
2022/05/06 10:44:34;;;;;;;43.17;38.57;;;23.90;96.40;;;;;;5001453;28;21041;-67
2022/05/06 10:47:01;;;;;;;41.90;37.40;;;23.80;96.10;;;;;;5002398;28;21471;-67
2022/05/06 10:49:53;;;;;;;39.00;34.40;;;24.70;95.20;;;;;;5002879;28;20487;-67
2022/05/06 10:52:44;;;;;;;41.10;36.27;;;25.20;93.20;;;;;;5002564;28;20457;-66
2022/05/06 10:55:15;;;;;;;37.80;34.00;;;24.60;93.50;;;;;;4993859;28;20500;-66
2022/05/06 10:57:59;;;;;;;39.70;35.53;;;24.50;94.20;;;;;;5003819;28;20468;-67
2022/05/06 11:00:28;;;;;;;40.10;36.10;;;24.90;93.30;;;;;;5003959;28;20473;-66
2022/05/06 11:02:57;;;;;;;35.97;32.00;;;25.70;92.30;;;;;;5003336;28;20554;-66
2022/05/06 11:05:25;;;;;;;35.50;32.00;;;26.30;90.70;;;;;;5003770;28;21156;-67
2022/05/06 11:07:56;;;;;;;33.70;29.13;;;26.10;89.10;;;;;;5003654;28;20493;-66
2022/05/06 11:10:26;;;;;;;36.13;32.33;;;26.50;82.30;;;;;;5003152;28;21272;-68
2022/05/06 11:12:54;;;;;;;36.67;32.87;;;26.80;82.70;;;;;;5003228;28;20444;-67
2022/05/06 11:15:23;;;;;;;32.43;29.43;;;26.80;79.60;;;;;;5002052;28;21002;-67
2022/05/06 11:17:52;;;;;;;35.90;32.53;;;27.30;78.20;;;;;;5002944;28;20634;-68
2022/05/06 11:20:23;;;;;;;36.83;33.17;;;27.20;77.10;;;;;;5001615;28;20465;-67
2022/05/06 11:23:03;;;;;;;35.73;32.37;;;27.70;75.60;;;;;;5001735;28;20475;-68
2022/05/06 11:25:33;;;;;;;37.93;34.37;;;27.80;73.70;;;;;;5002600;28;20791;-67
2022/05/06 11:28:01;;;;;;;35.70;32.43;;;27.00;74.20;;;;;;5001426;28;20457;-67
2022/05/06 11:30:30;;;;;;;40.27;36.20;;;27.60;74.20;;;;;;5002430;28;20472;-68
2022/05/06 11:32:59;;;;;;;39.37;35.40;;;28.90;71.90;;;;;;5002468;28;20468;-68
2022/05/06 11:35:29;;;;;;;37.90;34.50;;;28.90;70.20;;;;;;5000876;28;21018;-68
2022/05/06 11:37:56;;;;;;;37.00;33.60;;;28.80;69.00;;;;;;5007969;28;20479;-67
2022/05/06 11:40:34;;;;;;;38.13;33.83;;;27.30;72.30;;;;;;5025357;28;20478;-68
2022/05/06 11:43:05;;;;;;;36.80;33.20;;;26.30;73.50;;;;;;5036330;28;20455;-68
2022/05/06 11:48:21;;;;;;;36.10;32.30;;;25.50;75.30;;;;;;5018142;28;20618;-70
2022/05/06 11:50:52;;;;;;;32.40;29.10;;;26.30;73.90;;;;;;5007156;28;21166;-67
2022/05/06 11:53:19;;;;;;;32.13;28.80;;;25.70;69.70;;;;;;5006927;28;20819;-68
2022/05/06 11:55:47;;;;;;;33.00;29.70;;;25.10;72.00;;;;;;5005785;28;20498;-68
2022/05/06 11:58:17;;;;;;;33.87;30.37;;;24.80;71.50;;;;;;5007246;28;20510;-67
2022/05/06 12:00:45;;;;;;;33.93;30.73;;;25.40;73.70;;;;;;5007138;28;20577;-68
2022/05/06 12:03:14;;;;;;;36.00;32.50;;;25.30;73.00;;;;;;5006318;28;20491;-68
2022/05/06 12:05:42;;;;;;;30.83;27.70;;;25.40;73.20;;;;;;5006441;28;20986;-68
2022/05/06 12:08:09;;;;;;;37.33;32.93;;;25.60;72.00;;;;;;5006125;28;20471;-67
2022/05/06 12:10:37;;;;;;;35.10;31.87;;;25.80;70.50;;;;;;5007283;28;20605;-68
2022/05/06 12:13:07;;;;;;;30.13;26.80;;;26.80;70.20;;;;;;5006968;28;20463;-68
2022/05/06 12:15:38;;;;;;;32.03;29.03;;;28.40;64.80;;;;;;5006736;28;20483;-68
2022/05/06 12:18:06;;;;;;;34.13;31.03;;;28.40;63.00;;;;;;5006387;28;20970;-67
2022/05/06 12:20:37;;;;;;;33.43;30.13;;;28.40;63.70;;;;;;5007487;28;20495;-68
2022/05/06 12:23:06;;;;;;;28.57;26.03;;;28.20;62.80;;;;;;5005904;28;20465;-68
2022/05/06 12:25:35;;;;;;;30.73;27.70;;;29.00;61.50;;;;;;5005631;28;20928;-68
2022/05/06 12:28:07;;;;;;;27.97;25.60;;;29.50;59.00;;;;;;5008693;28;20500;-68
2022/05/06 12:30:36;;;;;;;31.40;28.50;;;29.10;56.50;;;;;;5008159;28;20816;-68
2022/05/06 12:33:07;;;;;;;31.50;28.60;;;28.40;57.30;;;;;;5007405;28;20472;-68
2022/05/06 12:35:56;;;;;;;33.07;29.67;;;29.00;59.50;;;;;;5007416;28;20845;-68
2022/05/06 12:38:24;;;;;;;32.77;29.67;;;28.70;58.20;;;;;;5005097;28;20487;-68
2022/05/06 12:40:52;;;;;;;28.50;26.20;;;29.00;57.60;;;;;;5014609;28;21234;-68
2022/05/06 12:43:26;;;;;;;31.83;28.90;;;28.60;56.60;;;;;;5030323;28;20539;-68
2022/05/06 12:45:59;;;;;;;29.03;26.23;;;28.00;57.10;;;;;;5009588;28;20962;-68
2022/05/06 12:51:11;;;;;;;29.30;26.80;;;28.50;58.00;;;;;;5006767;28;20535;-68
2022/05/06 12:53:37;;;;;;;28.93;26.17;;;28.80;57.70;;;;;;5006242;28;20491;-68
2022/05/06 12:56:05;;;;;;;28.70;26.10;;;29.50;56.10;;;;;;5006677;28;20484;-69
2022/05/06 12:58:33;;;;;;;28.77;26.43;;;30.30;54.00;;;;;;5007482;28;21065;-68
2022/05/06 13:01:01;;;;;;;28.87;26.30;;;29.40;54.10;;;;;;5007577;28;20789;-69
2022/05/06 13:03:29;;;;;;;28.90;26.50;;;28.60;54.00;;;;;;5007168;28;20469;-69
2022/05/06 13:05:55;;;;;;;27.40;25.10;;;28.90;54.70;;;;;;5006664;28;20489;-68
2022/05/06 13:08:24;;;;;;;26.80;24.37;;;28.20;56.20;;;;;;5007908;28;20683;-69
2022/05/06 13:10:52;;;;;;;26.77;24.57;;;27.60;57.10;;;;;;5028232;28;20556;-68
2022/05/06 13:13:19;;;;;;;31.40;24.00;;;27.50;56.20;;;;;;5030357;28;20473;-68
2022/05/06 13:15:46;;;;;;;24.13;22.30;;;27.40;55.70;;;;;;5010152;28;21072;-69
2022/05/06 13:18:16;;;;;;;23.93;22.07;;;27.00;54.90;;;;;;5019287;28;20500;-67
2022/05/06 13:20:44;;;;;;;24.77;22.50;;;26.70;54.90;;;;;;5034387;28;20452;-68
2022/05/06 13:23:11;;;;;;;22.47;20.60;;;27.10;56.40;;;;;;5010389;28;21016;-68
2022/05/06 13:25:38;;;;;;;20.63;19.03;;;27.90;52.60;;;;;;5007919;28;20781;-68
2022/05/06 13:28:05;;;;;;;19.57;18.27;;;28.30;52.10;;;;;;5004115;28;20500;-68
2022/05/06 13:30:32;;;;;;;21.60;19.57;;;29.10;51.10;;;;;;5004013;28;20463;-69